sensor_id;sensor_type;location;lat;lon;timestamp;P1;durP1;ratioP1;P2;durP2;ratioP2
51636;SDS011;37713;53.254;6.460;2023-04-28T00:00:30;13.77;;;6.75;;
51636;SDS011;37713;53.254;6.460;2023-04-28T00:02:56;12.75;;;6.90;;
51636;SDS011;37713;53.254;6.460;2023-04-28T00:05:22;11.25;;;6.20;;
51636;SDS011;37713;53.254;6.460;2023-04-28T00:07:49;11.32;;;6.65;;
51636;SDS011;37713;53.254;6.460;2023-04-28T00:10:14;12.63;;;6.78;;
51636;SDS011;37713;53.254;6.460;2023-04-28T00:12:40;11.45;;;6.72;;
51636;SDS011;37713;53.254;6.460;2023-04-28T00:15:06;11.38;;;6.80;;
51636;SDS011;37713;53.254;6.460;2023-04-28T00:17:33;10.93;;;6.55;;
51636;SDS011;37713;53.254;6.460;2023-04-28T00:19:58;11.80;;;7.03;;
51636;SDS011;37713;53.254;6.460;2023-04-28T00:22:24;13.95;;;7.32;;
51636;SDS011;37713;53.254;6.460;2023-04-28T00:24:50;11.85;;;6.72;;
51636;SDS011;37713;53.254;6.460;2023-04-28T00:27:16;13.93;;;7.00;;
51636;SDS011;37713;53.254;6.460;2023-04-28T00:29:42;12.13;;;6.78;;
51636;SDS011;37713;53.254;6.460;2023-04-28T00:32:08;12.88;;;6.97;;
51636;SDS011;37713;53.254;6.460;2023-04-28T00:34:33;12.00;;;7.03;;
51636;SDS011;37713;53.254;6.460;2023-04-28T00:37:01;11.43;;;7.28;;
51636;SDS011;37713;53.254;6.460;2023-04-28T00:39:28;11.98;;;7.60;;
51636;SDS011;37713;53.254;6.460;2023-04-28T00:41:53;12.30;;;7.53;;
51636;SDS011;37713;53.254;6.460;2023-04-28T00:44:20;14.15;;;7.55;;
51636;SDS011;37713;53.254;6.460;2023-04-28T00:46:45;13.30;;;7.10;;
51636;SDS011;37713;53.254;6.460;2023-04-28T00:49:12;12.50;;;7.68;;
51636;SDS011;37713;53.254;6.460;2023-04-28T00:51:39;13.13;;;7.20;;
51636;SDS011;37713;53.254;6.460;2023-04-28T00:54:05;13.82;;;7.45;;
51636;SDS011;37713;53.254;6.460;2023-04-28T00:56:31;14.40;;;7.50;;
51636;SDS011;37713;53.254;6.460;2023-04-28T00:58:58;12.02;;;7.45;;
51636;SDS011;37713;53.254;6.460;2023-04-28T01:01:24;12.60;;;7.53;;
51636;SDS011;37713;53.254;6.460;2023-04-28T01:03:49;14.27;;;7.97;;
51636;SDS011;37713;53.254;6.460;2023-04-28T01:06:15;14.18;;;8.00;;
51636;SDS011;37713;53.254;6.460;2023-04-28T01:08:42;15.10;;;7.65;;
51636;SDS011;37713;53.254;6.460;2023-04-28T01:11:11;13.27;;;7.72;;
51636;SDS011;37713;53.254;6.460;2023-04-28T01:13:38;14.02;;;7.78;;
51636;SDS011;37713;53.254;6.460;2023-04-28T01:16:05;12.43;;;7.57;;
51636;SDS011;37713;53.254;6.460;2023-04-28T01:18:31;14.00;;;7.60;;
51636;SDS011;37713;53.254;6.460;2023-04-28T01:20:58;12.65;;;7.38;;
51636;SDS011;37713;53.254;6.460;2023-04-28T01:23:24;13.23;;;7.47;;
51636;SDS011;37713;53.254;6.460;2023-04-28T01:25:50;13.13;;;6.95;;
51636;SDS011;37713;53.254;6.460;2023-04-28T01:28:16;12.85;;;7.50;;
51636;SDS011;37713;53.254;6.460;2023-04-28T01:30:42;14.77;;;7.85;;
51636;SDS011;37713;53.254;6.460;2023-04-28T01:33:07;12.80;;;7.18;;
51636;SDS011;37713;53.254;6.460;2023-04-28T01:35:33;12.77;;;7.15;;
51636;SDS011;37713;53.254;6.460;2023-04-28T01:37:59;13.50;;;7.53;;
51636;SDS011;37713;53.254;6.460;2023-04-28T01:40:25;13.40;;;7.25;;
51636;SDS011;37713;53.254;6.460;2023-04-28T01:42:51;12.43;;;7.82;;
51636;SDS011;37713;53.254;6.460;2023-04-28T01:45:16;14.85;;;7.85;;
51636;SDS011;37713;53.254;6.460;2023-04-28T01:47:42;14.30;;;7.63;;
51636;SDS011;37713;53.254;6.460;2023-04-28T01:50:08;15.10;;;7.90;;
51636;SDS011;37713;53.254;6.460;2023-04-28T01:52:34;13.85;;;7.32;;
51636;SDS011;37713;53.254;6.460;2023-04-28T01:54:59;13.77;;;7.70;;
51636;SDS011;37713;53.254;6.460;2023-04-28T01:57:25;12.90;;;7.15;;
51636;SDS011;37713;53.254;6.460;2023-04-28T01:59:53;12.90;;;7.70;;
51636;SDS011;37713;53.254;6.460;2023-04-28T02:02:19;13.27;;;8.02;;
51636;SDS011;37713;53.254;6.460;2023-04-28T02:04:45;13.00;;;7.40;;
51636;SDS011;37713;53.254;6.460;2023-04-28T02:07:10;12.82;;;7.80;;
51636;SDS011;37713;53.254;6.460;2023-04-28T02:09:36;12.80;;;7.40;;
51636;SDS011;37713;53.254;6.460;2023-04-28T02:12:02;16.23;;;7.82;;
51636;SDS011;37713;53.254;6.460;2023-04-28T02:14:28;13.40;;;8.05;;
51636;SDS011;37713;53.254;6.460;2023-04-28T02:16:57;13.73;;;7.53;;
51636;SDS011;37713;53.254;6.460;2023-04-28T02:19:23;13.68;;;7.65;;
51636;SDS011;37713;53.254;6.460;2023-04-28T02:21:49;12.85;;;7.85;;
51636;SDS011;37713;53.254;6.460;2023-04-28T02:24:15;16.75;;;8.20;;
51636;SDS011;37713;53.254;6.460;2023-04-28T02:26:40;14.10;;;7.53;;
51636;SDS011;37713;53.254;6.460;2023-04-28T02:29:06;14.18;;;7.78;;
51636;SDS011;37713;53.254;6.460;2023-04-28T02:31:32;12.32;;;7.57;;
51636;SDS011;37713;53.254;6.460;2023-04-28T02:33:58;13.23;;;7.70;;
51636;SDS011;37713;53.254;6.460;2023-04-28T02:36:23;13.38;;;7.95;;
51636;SDS011;37713;53.254;6.460;2023-04-28T02:38:49;15.15;;;7.90;;
51636;SDS011;37713;53.254;6.460;2023-04-28T02:41:16;12.88;;;7.60;;
51636;SDS011;37713;53.254;6.460;2023-04-28T02:43:41;15.05;;;8.20;;
51636;SDS011;37713;53.254;6.460;2023-04-28T02:46:07;17.35;;;8.35;;
51636;SDS011;37713;53.254;6.460;2023-04-28T02:48:33;14.85;;;8.18;;
51636;SDS011;37713;53.254;6.460;2023-04-28T02:51:03;16.88;;;9.52;;
51636;SDS011;37713;53.254;6.460;2023-04-28T02:53:28;14.85;;;8.75;;
51636;SDS011;37713;53.254;6.460;2023-04-28T02:55:54;16.00;;;9.30;;
51636;SDS011;37713;53.254;6.460;2023-04-28T02:58:21;16.25;;;9.35;;
51636;SDS011;37713;53.254;6.460;2023-04-28T03:00:47;19.05;;;10.27;;
51636;SDS011;37713;53.254;6.460;2023-04-28T03:03:12;17.17;;;10.07;;
51636;SDS011;37713;53.254;6.460;2023-04-28T03:05:38;17.98;;;9.82;;
51636;SDS011;37713;53.254;6.460;2023-04-28T03:08:04;19.40;;;9.90;;
51636;SDS011;37713;53.254;6.460;2023-04-28T03:10:31;21.30;;;10.07;;
51636;SDS011;37713;53.254;6.460;2023-04-28T03:12:56;20.40;;;10.57;;
51636;SDS011;37713;53.254;6.460;2023-04-28T03:15:22;21.48;;;10.18;;
51636;SDS011;37713;53.254;6.460;2023-04-28T03:17:48;20.42;;;10.88;;
51636;SDS011;37713;53.254;6.460;2023-04-28T03:20:14;17.67;;;10.15;;
51636;SDS011;37713;53.254;6.460;2023-04-28T03:22:39;20.23;;;10.38;;
51636;SDS011;37713;53.254;6.460;2023-04-28T03:25:05;22.40;;;11.55;;
51636;SDS011;37713;53.254;6.460;2023-04-28T03:27:31;21.85;;;11.02;;
51636;SDS011;37713;53.254;6.460;2023-04-28T03:29:57;18.05;;;10.35;;
51636;SDS011;37713;53.254;6.460;2023-04-28T03:32:23;22.60;;;11.30;;
51636;SDS011;37713;53.254;6.460;2023-04-28T03:34:48;20.08;;;11.48;;
51636;SDS011;37713;53.254;6.460;2023-04-28T03:37:14;20.85;;;10.82;;
51636;SDS011;37713;53.254;6.460;2023-04-28T03:39:40;22.00;;;12.15;;
51636;SDS011;37713;53.254;6.460;2023-04-28T03:42:06;22.40;;;12.70;;
51636;SDS011;37713;53.254;6.460;2023-04-28T03:44:32;24.23;;;12.50;;
51636;SDS011;37713;53.254;6.460;2023-04-28T03:46:57;22.45;;;12.50;;
51636;SDS011;37713;53.254;6.460;2023-04-28T03:49:24;24.50;;;11.52;;
51636;SDS011;37713;53.254;6.460;2023-04-28T03:51:49;22.27;;;12.32;;
51636;SDS011;37713;53.254;6.460;2023-04-28T03:54:16;23.65;;;12.02;;
51636;SDS011;37713;53.254;6.460;2023-04-28T03:56:41;23.67;;;12.90;;
51636;SDS011;37713;53.254;6.460;2023-04-28T03:59:08;22.15;;;12.73;;
51636;SDS011;37713;53.254;6.460;2023-04-28T04:01:36;26.55;;;12.68;;
51636;SDS011;37713;53.254;6.460;2023-04-28T04:04:02;23.35;;;12.32;;
51636;SDS011;37713;53.254;6.460;2023-04-28T04:06:28;25.42;;;13.40;;
51636;SDS011;37713;53.254;6.460;2023-04-28T04:08:55;24.67;;;13.13;;
51636;SDS011;37713;53.254;6.460;2023-04-28T04:11:20;23.77;;;13.98;;
51636;SDS011;37713;53.254;6.460;2023-04-28T04:13:46;25.90;;;13.95;;
51636;SDS011;37713;53.254;6.460;2023-04-28T04:16:12;27.30;;;13.85;;
51636;SDS011;37713;53.254;6.460;2023-04-28T04:18:40;24.25;;;13.43;;
51636;SDS011;37713;53.254;6.460;2023-04-28T04:21:05;24.08;;;13.18;;
51636;SDS011;37713;53.254;6.460;2023-04-28T04:23:32;25.77;;;13.50;;
51636;SDS011;37713;53.254;6.460;2023-04-28T04:25:58;28.65;;;14.45;;
51636;SDS011;37713;53.254;6.460;2023-04-28T04:28:24;26.30;;;14.65;;
51636;SDS011;37713;53.254;6.460;2023-04-28T04:30:50;27.70;;;14.15;;
51636;SDS011;37713;53.254;6.460;2023-04-28T04:33:16;28.33;;;15.05;;
51636;SDS011;37713;53.254;6.460;2023-04-28T04:35:41;30.50;;;14.40;;
51636;SDS011;37713;53.254;6.460;2023-04-28T04:38:07;33.08;;;15.85;;
51636;SDS011;37713;53.254;6.460;2023-04-28T04:40:33;26.05;;;14.38;;
51636;SDS011;37713;53.254;6.460;2023-04-28T04:42:59;24.88;;;13.65;;
51636;SDS011;37713;53.254;6.460;2023-04-28T04:45:25;26.38;;;13.73;;
51636;SDS011;37713;53.254;6.460;2023-04-28T04:47:51;28.35;;;13.25;;
51636;SDS011;37713;53.254;6.460;2023-04-28T04:50:17;25.15;;;13.15;;
51636;SDS011;37713;53.254;6.460;2023-04-28T04:52:43;22.48;;;13.23;;
51636;SDS011;37713;53.254;6.460;2023-04-28T04:55:09;26.38;;;13.25;;
51636;SDS011;37713;53.254;6.460;2023-04-28T04:57:35;26.08;;;13.15;;
51636;SDS011;37713;53.254;6.460;2023-04-28T05:00:02;23.80;;;12.80;;
51636;SDS011;37713;53.254;6.460;2023-04-28T05:02:28;25.45;;;12.95;;
51636;SDS011;37713;53.254;6.460;2023-04-28T05:04:54;21.40;;;11.70;;
51636;SDS011;37713;53.254;6.460;2023-04-28T05:07:20;22.42;;;12.25;;
51636;SDS011;37713;53.254;6.460;2023-04-28T05:09:46;28.60;;;12.75;;
51636;SDS011;37713;53.254;6.460;2023-04-28T05:12:11;21.50;;;11.02;;
51636;SDS011;37713;53.254;6.460;2023-04-28T05:14:37;23.88;;;12.38;;
51636;SDS011;37713;53.254;6.460;2023-04-28T05:17:03;20.25;;;11.70;;
51636;SDS011;37713;53.254;6.460;2023-04-28T05:19:29;19.65;;;11.23;;
51636;SDS011;37713;53.254;6.460;2023-04-28T05:21:55;21.58;;;10.95;;
51636;SDS011;37713;53.254;6.460;2023-04-28T05:24:21;19.65;;;11.25;;
51636;SDS011;37713;53.254;6.460;2023-04-28T05:26:50;23.02;;;12.05;;
51636;SDS011;37713;53.254;6.460;2023-04-28T05:29:16;21.55;;;11.57;;
51636;SDS011;37713;53.254;6.460;2023-04-28T05:31:42;20.70;;;11.43;;
51636;SDS011;37713;53.254;6.460;2023-04-28T05:34:08;19.45;;;11.63;;
51636;SDS011;37713;53.254;6.460;2023-04-28T05:36:34;21.48;;;12.05;;
51636;SDS011;37713;53.254;6.460;2023-04-28T05:39:00;20.08;;;11.32;;
51636;SDS011;37713;53.254;6.460;2023-04-28T05:41:26;20.17;;;11.20;;
51636;SDS011;37713;53.254;6.460;2023-04-28T05:43:52;21.45;;;11.05;;
51636;SDS011;37713;53.254;6.460;2023-04-28T05:46:19;20.67;;;11.00;;
51636;SDS011;37713;53.254;6.460;2023-04-28T05:48:44;21.38;;;10.85;;
51636;SDS011;37713;53.254;6.460;2023-04-28T05:51:11;16.45;;;10.15;;
51636;SDS011;37713;53.254;6.460;2023-04-28T05:53:36;20.90;;;10.38;;
51636;SDS011;37713;53.254;6.460;2023-04-28T05:56:02;19.17;;;10.82;;
51636;SDS011;37713;53.254;6.460;2023-04-28T05:58:28;17.60;;;10.35;;
51636;SDS011;37713;53.254;6.460;2023-04-28T06:00:55;18.60;;;10.65;;
51636;SDS011;37713;53.254;6.460;2023-04-28T06:03:21;19.23;;;9.98;;
51636;SDS011;37713;53.254;6.460;2023-04-28T06:05:47;22.05;;;10.13;;
51636;SDS011;37713;53.254;6.460;2023-04-28T06:08:13;19.35;;;10.85;;
51636;SDS011;37713;53.254;6.460;2023-04-28T06:10:39;21.23;;;11.32;;
51636;SDS011;37713;53.254;6.460;2023-04-28T06:13:05;19.48;;;10.57;;
51636;SDS011;37713;53.254;6.460;2023-04-28T06:15:31;24.30;;;11.57;;
51636;SDS011;37713;53.254;6.460;2023-04-28T06:17:57;18.73;;;10.93;;
51636;SDS011;37713;53.254;6.460;2023-04-28T06:20:23;19.55;;;10.43;;
51636;SDS011;37713;53.254;6.460;2023-04-28T06:22:49;19.00;;;10.38;;
51636;SDS011;37713;53.254;6.460;2023-04-28T06:25:15;20.40;;;11.27;;
51636;SDS011;37713;53.254;6.460;2023-04-28T06:27:41;19.52;;;10.63;;
51636;SDS011;37713;53.254;6.460;2023-04-28T06:30:07;19.23;;;10.57;;
51636;SDS011;37713;53.254;6.460;2023-04-28T06:32:33;22.70;;;11.35;;
51636;SDS011;37713;53.254;6.460;2023-04-28T06:35:00;18.35;;;10.77;;
51636;SDS011;37713;53.254;6.460;2023-04-28T06:37:25;18.50;;;9.82;;
51636;SDS011;37713;53.254;6.460;2023-04-28T06:39:51;19.30;;;10.43;;
51636;SDS011;37713;53.254;6.460;2023-04-28T06:42:17;19.80;;;11.00;;
51636;SDS011;37713;53.254;6.460;2023-04-28T06:44:44;18.42;;;11.02;;
51636;SDS011;37713;53.254;6.460;2023-04-28T06:47:10;18.90;;;11.27;;
51636;SDS011;37713;53.254;6.460;2023-04-28T06:49:36;19.45;;;10.57;;
51636;SDS011;37713;53.254;6.460;2023-04-28T06:52:02;18.35;;;9.90;;
51636;SDS011;37713;53.254;6.460;2023-04-28T06:54:27;21.08;;;11.32;;
51636;SDS011;37713;53.254;6.460;2023-04-28T06:56:53;17.92;;;10.30;;
51636;SDS011;37713;53.254;6.460;2023-04-28T06:59:19;15.90;;;9.60;;
51636;SDS011;37713;53.254;6.460;2023-04-28T07:01:45;18.00;;;10.18;;
51636;SDS011;37713;53.254;6.460;2023-04-28T07:04:12;22.15;;;11.57;;
51636;SDS011;37713;53.254;6.460;2023-04-28T07:06:37;20.27;;;9.85;;
51636;SDS011;37713;53.254;6.460;2023-04-28T07:09:03;21.85;;;10.38;;
51636;SDS011;37713;53.254;6.460;2023-04-28T07:11:29;17.92;;;9.30;;
51636;SDS011;37713;53.254;6.460;2023-04-28T07:13:57;19.77;;;10.48;;
51636;SDS011;37713;53.254;6.460;2023-04-28T07:16:24;20.90;;;10.70;;
51636;SDS011;37713;53.254;6.460;2023-04-28T07:18:50;22.58;;;10.07;;
51636;SDS011;37713;53.254;6.460;2023-04-28T07:21:16;19.42;;;9.88;;
51636;SDS011;37713;53.254;6.460;2023-04-28T07:23:41;20.30;;;10.48;;
51636;SDS011;37713;53.254;6.460;2023-04-28T07:26:07;21.60;;;9.65;;
51636;SDS011;37713;53.254;6.460;2023-04-28T07:28:33;18.00;;;10.32;;
51636;SDS011;37713;53.254;6.460;2023-04-28T07:30:59;18.77;;;10.45;;
51636;SDS011;37713;53.254;6.460;2023-04-28T07:33:25;19.05;;;10.68;;
51636;SDS011;37713;53.254;6.460;2023-04-28T07:35:52;15.93;;;9.10;;
51636;SDS011;37713;53.254;6.460;2023-04-28T07:38:18;18.52;;;10.77;;
51636;SDS011;37713;53.254;6.460;2023-04-28T07:40:44;17.85;;;10.00;;
51636;SDS011;37713;53.254;6.460;2023-04-28T07:43:10;17.92;;;9.93;;
51636;SDS011;37713;53.254;6.460;2023-04-28T07:45:39;20.63;;;10.63;;
51636;SDS011;37713;53.254;6.460;2023-04-28T07:48:05;18.48;;;9.85;;
51636;SDS011;37713;53.254;6.460;2023-04-28T07:50:31;19.35;;;10.68;;
51636;SDS011;37713;53.254;6.460;2023-04-28T07:52:58;17.83;;;9.85;;
51636;SDS011;37713;53.254;6.460;2023-04-28T07:55:23;19.92;;;10.80;;
51636;SDS011;37713;53.254;6.460;2023-04-28T07:57:50;18.85;;;10.70;;
51636;SDS011;37713;53.254;6.460;2023-04-28T08:00:15;18.23;;;10.13;;
51636;SDS011;37713;53.254;6.460;2023-04-28T08:02:42;18.65;;;10.70;;
51636;SDS011;37713;53.254;6.460;2023-04-28T08:05:08;17.20;;;9.90;;
51636;SDS011;37713;53.254;6.460;2023-04-28T08:07:34;18.80;;;10.23;;
51636;SDS011;37713;53.254;6.460;2023-04-28T08:10:01;16.52;;;10.02;;
51636;SDS011;37713;53.254;6.460;2023-04-28T08:12:28;15.43;;;9.68;;
51636;SDS011;37713;53.254;6.460;2023-04-28T08:14:55;15.32;;;10.00;;
51636;SDS011;37713;53.254;6.460;2023-04-28T08:17:21;17.50;;;10.07;;
51636;SDS011;37713;53.254;6.460;2023-04-28T08:19:46;16.35;;;10.45;;
51636;SDS011;37713;53.254;6.460;2023-04-28T08:22:13;21.30;;;10.07;;
51636;SDS011;37713;53.254;6.460;2023-04-28T08:24:38;20.67;;;11.88;;
51636;SDS011;37713;53.254;6.460;2023-04-28T08:27:04;17.23;;;10.40;;
51636;SDS011;37713;53.254;6.460;2023-04-28T08:29:31;19.80;;;10.15;;
51636;SDS011;37713;53.254;6.460;2023-04-28T08:31:56;18.15;;;9.85;;
51636;SDS011;37713;53.254;6.460;2023-04-28T08:34:22;16.85;;;10.35;;
51636;SDS011;37713;53.254;6.460;2023-04-28T08:36:48;19.40;;;10.80;;
51636;SDS011;37713;53.254;6.460;2023-04-28T08:39:15;19.38;;;11.02;;
51636;SDS011;37713;53.254;6.460;2023-04-28T08:41:41;19.40;;;10.07;;
51636;SDS011;37713;53.254;6.460;2023-04-28T08:44:10;19.02;;;10.23;;
51636;SDS011;37713;53.254;6.460;2023-04-28T08:46:39;18.30;;;11.15;;
51636;SDS011;37713;53.254;6.460;2023-04-28T08:51:37;20.27;;;10.73;;
51636;SDS011;37713;53.254;6.460;2023-04-28T08:54:09;19.27;;;12.00;;
51636;SDS011;37713;53.254;6.460;2023-04-28T08:56:38;20.75;;;12.00;;
51636;SDS011;37713;53.254;6.460;2023-04-28T08:59:04;18.67;;;10.40;;
51636;SDS011;37713;53.254;6.460;2023-04-28T09:01:30;20.33;;;11.57;;
51636;SDS011;37713;53.254;6.460;2023-04-28T09:03:56;18.80;;;11.95;;
51636;SDS011;37713;53.254;6.460;2023-04-28T09:08:56;18.45;;;11.68;;
51636;SDS011;37713;53.254;6.460;2023-04-28T09:11:21;20.58;;;12.27;;
51636;SDS011;37713;53.254;6.460;2023-04-28T09:13:47;20.70;;;11.63;;
51636;SDS011;37713;53.254;6.460;2023-04-28T09:16:13;21.83;;;10.90;;
51636;SDS011;37713;53.254;6.460;2023-04-28T09:18:39;18.98;;;11.77;;
51636;SDS011;37713;53.254;6.460;2023-04-28T09:21:19;17.80;;;11.30;;
51636;SDS011;37713;53.254;6.460;2023-04-28T09:23:46;17.75;;;11.43;;
51636;SDS011;37713;53.254;6.460;2023-04-28T09:26:13;19.38;;;11.07;;
51636;SDS011;37713;53.254;6.460;2023-04-28T09:28:39;17.42;;;11.05;;
51636;SDS011;37713;53.254;6.460;2023-04-28T09:31:05;21.23;;;11.60;;
51636;SDS011;37713;53.254;6.460;2023-04-28T09:33:30;22.00;;;11.18;;
51636;SDS011;37713;53.254;6.460;2023-04-28T09:35:56;16.98;;;10.85;;
51636;SDS011;37713;53.254;6.460;2023-04-28T09:38:22;20.95;;;11.27;;
51636;SDS011;37713;53.254;6.460;2023-04-28T09:43:28;17.38;;;11.45;;
51636;SDS011;37713;53.254;6.460;2023-04-28T09:45:59;18.52;;;11.18;;
51636;SDS011;37713;53.254;6.460;2023-04-28T09:48:26;19.67;;;10.90;;
51636;SDS011;37713;53.254;6.460;2023-04-28T09:51:06;18.20;;;11.20;;
51636;SDS011;37713;53.254;6.460;2023-04-28T09:53:32;19.38;;;10.95;;
51636;SDS011;37713;53.254;6.460;2023-04-28T09:56:01;16.60;;;10.93;;
51636;SDS011;37713;53.254;6.460;2023-04-28T09:58:29;19.48;;;10.95;;
51636;SDS011;37713;53.254;6.460;2023-04-28T10:00:57;16.25;;;10.30;;
51636;SDS011;37713;53.254;6.460;2023-04-28T10:03:24;15.07;;;10.15;;
51636;SDS011;37713;53.254;6.460;2023-04-28T10:05:52;14.98;;;10.20;;
51636;SDS011;37713;53.254;6.460;2023-04-28T10:08:21;21.58;;;10.65;;
51636;SDS011;37713;53.254;6.460;2023-04-28T10:10:49;16.92;;;11.13;;
51636;SDS011;37713;53.254;6.460;2023-04-28T10:13:18;20.97;;;11.30;;
51636;SDS011;37713;53.254;6.460;2023-04-28T10:15:45;19.67;;;10.93;;
51636;SDS011;37713;53.254;6.460;2023-04-28T10:18:14;18.42;;;10.52;;
51636;SDS011;37713;53.254;6.460;2023-04-28T10:20:56;17.30;;;10.85;;
51636;SDS011;37713;53.254;6.460;2023-04-28T10:26:02;16.08;;;10.30;;
51636;SDS011;37713;53.254;6.460;2023-04-28T10:28:35;18.23;;;10.98;;
51636;SDS011;37713;53.254;6.460;2023-04-28T10:33:38;20.45;;;11.25;;
51636;SDS011;37713;53.254;6.460;2023-04-28T10:36:05;18.27;;;10.70;;
51636;SDS011;37713;53.254;6.460;2023-04-28T10:38:32;16.80;;;10.85;;
51636;SDS011;37713;53.254;6.460;2023-04-28T10:40:59;18.98;;;10.80;;
51636;SDS011;37713;53.254;6.460;2023-04-28T10:56:25;19.25;;;11.40;;
51636;SDS011;37713;53.254;6.460;2023-04-28T10:58:55;18.75;;;11.60;;
51636;SDS011;37713;53.254;6.460;2023-04-28T11:01:25;19.60;;;11.55;;
51636;SDS011;37713;53.254;6.460;2023-04-28T11:03:54;17.70;;;12.07;;
51636;SDS011;37713;53.254;6.460;2023-04-28T11:06:25;18.05;;;11.63;;
51636;SDS011;37713;53.254;6.460;2023-04-28T11:08:53;20.67;;;12.68;;
51636;SDS011;37713;53.254;6.460;2023-04-28T11:11:32;17.13;;;11.68;;
51636;SDS011;37713;53.254;6.460;2023-04-28T11:19:23;20.30;;;12.80;;
51636;SDS011;37713;53.254;6.460;2023-04-28T11:21:51;18.85;;;12.60;;
51636;SDS011;37713;53.254;6.460;2023-04-28T11:24:19;18.60;;;12.45;;
51636;SDS011;37713;53.254;6.460;2023-04-28T11:26:45;19.00;;;12.68;;
51636;SDS011;37713;53.254;6.460;2023-04-28T11:29:11;18.52;;;13.13;;
51636;SDS011;37713;53.254;6.460;2023-04-28T11:31:38;22.67;;;12.82;;
51636;SDS011;37713;53.254;6.460;2023-04-28T11:34:05;21.10;;;12.50;;
51636;SDS011;37713;53.254;6.460;2023-04-28T11:36:37;20.25;;;12.38;;
51636;SDS011;37713;53.254;6.460;2023-04-28T11:39:05;19.95;;;13.55;;
51636;SDS011;37713;53.254;6.460;2023-04-28T11:41:32;18.92;;;13.00;;
51636;SDS011;37713;53.254;6.460;2023-04-28T11:43:59;18.13;;;12.63;;
51636;SDS011;37713;53.254;6.460;2023-04-28T11:46:33;21.33;;;13.05;;
51636;SDS011;37713;53.254;6.460;2023-04-28T11:48:59;17.80;;;13.13;;
51636;SDS011;37713;53.254;6.460;2023-04-28T11:51:37;21.92;;;13.27;;
51636;SDS011;37713;53.254;6.460;2023-04-28T11:54:04;22.33;;;13.10;;
51636;SDS011;37713;53.254;6.460;2023-04-28T11:56:45;22.48;;;13.00;;
51636;SDS011;37713;53.254;6.460;2023-04-28T11:59:11;21.27;;;12.93;;
51636;SDS011;37713;53.254;6.460;2023-04-28T12:01:51;18.65;;;13.18;;
51636;SDS011;37713;53.254;6.460;2023-04-28T12:09:26;21.80;;;12.23;;
51636;SDS011;37713;53.254;6.460;2023-04-28T12:11:56;23.17;;;13.70;;
51636;SDS011;37713;53.254;6.460;2023-04-28T12:14:32;19.05;;;12.93;;
51636;SDS011;37713;53.254;6.460;2023-04-28T12:17:27;21.50;;;13.90;;
51636;SDS011;37713;53.254;6.460;2023-04-28T12:19:55;22.08;;;13.38;;
51636;SDS011;37713;53.254;6.460;2023-04-28T12:22:22;19.10;;;13.50;;
51636;SDS011;37713;53.254;6.460;2023-04-28T12:25:07;18.55;;;13.32;;
51636;SDS011;37713;53.254;6.460;2023-04-28T12:27:35;19.83;;;12.68;;
51636;SDS011;37713;53.254;6.460;2023-04-28T12:32:47;18.40;;;13.75;;
51636;SDS011;37713;53.254;6.460;2023-04-28T12:35:13;18.77;;;12.88;;
51636;SDS011;37713;53.254;6.460;2023-04-28T12:37:38;21.17;;;13.95;;
51636;SDS011;37713;53.254;6.460;2023-04-28T12:40:06;18.08;;;13.82;;
51636;SDS011;37713;53.254;6.460;2023-04-28T12:42:33;21.58;;;13.88;;
51636;SDS011;37713;53.254;6.460;2023-04-28T12:44:59;20.52;;;14.40;;
51636;SDS011;37713;53.254;6.460;2023-04-28T12:47:25;19.27;;;13.38;;
51636;SDS011;37713;53.254;6.460;2023-04-28T12:49:51;23.38;;;13.48;;
51636;SDS011;37713;53.254;6.460;2023-04-28T12:52:18;20.88;;;14.57;;
51636;SDS011;37713;53.254;6.460;2023-04-28T12:54:44;21.02;;;14.82;;
51636;SDS011;37713;53.254;6.460;2023-04-28T12:57:16;23.42;;;15.15;;
51636;SDS011;37713;53.254;6.460;2023-04-28T12:59:43;20.20;;;13.90;;
51636;SDS011;37713;53.254;6.460;2023-04-28T13:02:11;20.45;;;14.00;;
51636;SDS011;37713;53.254;6.460;2023-04-28T13:04:39;20.10;;;14.25;;
51636;SDS011;37713;53.254;6.460;2023-04-28T13:07:07;22.15;;;16.25;;
51636;SDS011;37713;53.254;6.460;2023-04-28T13:09:33;21.23;;;15.10;;
51636;SDS011;37713;53.254;6.460;2023-04-28T13:11:59;21.73;;;14.68;;
51636;SDS011;37713;53.254;6.460;2023-04-28T13:14:27;21.75;;;15.18;;
51636;SDS011;37713;53.254;6.460;2023-04-28T13:16:53;18.75;;;14.10;;
51636;SDS011;37713;53.254;6.460;2023-04-28T13:19:18;19.77;;;13.43;;
51636;SDS011;37713;53.254;6.460;2023-04-28T13:21:44;19.88;;;14.10;;
51636;SDS011;37713;53.254;6.460;2023-04-28T13:24:11;19.52;;;14.15;;
51636;SDS011;37713;53.254;6.460;2023-04-28T13:26:40;18.83;;;13.80;;
51636;SDS011;37713;53.254;6.460;2023-04-28T13:29:08;21.52;;;13.93;;
51636;SDS011;37713;53.254;6.460;2023-04-28T13:31:34;19.70;;;14.13;;
51636;SDS011;37713;53.254;6.460;2023-04-28T13:34:00;21.73;;;14.15;;
51636;SDS011;37713;53.254;6.460;2023-04-28T13:36:26;20.95;;;14.60;;
51636;SDS011;37713;53.254;6.460;2023-04-28T13:38:56;21.67;;;14.15;;
51636;SDS011;37713;53.254;6.460;2023-04-28T13:41:22;22.75;;;15.10;;
51636;SDS011;37713;53.254;6.460;2023-04-28T13:43:48;19.42;;;14.32;;
51636;SDS011;37713;53.254;6.460;2023-04-28T13:46:14;21.60;;;15.20;;
51636;SDS011;37713;53.254;6.460;2023-04-28T13:48:40;22.55;;;15.52;;
51636;SDS011;37713;53.254;6.460;2023-04-28T13:51:06;25.85;;;15.90;;
51636;SDS011;37713;53.254;6.460;2023-04-28T13:53:32;21.88;;;16.42;;
51636;SDS011;37713;53.254;6.460;2023-04-28T13:55:59;23.45;;;16.35;;
51636;SDS011;37713;53.254;6.460;2023-04-28T13:58:26;21.13;;;15.80;;
51636;SDS011;37713;53.254;6.460;2023-04-28T14:00:53;20.65;;;15.52;;
51636;SDS011;37713;53.254;6.460;2023-04-28T14:03:19;19.77;;;14.95;;
51636;SDS011;37713;53.254;6.460;2023-04-28T14:05:47;20.92;;;15.13;;
51636;SDS011;37713;53.254;6.460;2023-04-28T14:08:14;23.80;;;16.05;;
51636;SDS011;37713;53.254;6.460;2023-04-28T14:10:40;20.77;;;15.60;;
51636;SDS011;37713;53.254;6.460;2023-04-28T14:13:06;22.25;;;15.65;;
51636;SDS011;37713;53.254;6.460;2023-04-28T14:15:32;22.15;;;16.33;;
51636;SDS011;37713;53.254;6.460;2023-04-28T14:17:58;26.55;;;18.00;;
51636;SDS011;37713;53.254;6.460;2023-04-28T14:20:23;22.13;;;16.27;;
51636;SDS011;37713;53.254;6.460;2023-04-28T14:22:49;21.58;;;16.17;;
51636;SDS011;37713;53.254;6.460;2023-04-28T14:25:15;24.27;;;16.13;;
51636;SDS011;37713;53.254;6.460;2023-04-28T14:27:42;21.10;;;16.30;;
51636;SDS011;37713;53.254;6.460;2023-04-28T14:30:08;21.20;;;15.40;;
51636;SDS011;37713;53.254;6.460;2023-04-28T14:32:35;20.40;;;15.77;;
51636;SDS011;37713;53.254;6.460;2023-04-28T14:35:02;21.55;;;16.00;;
51636;SDS011;37713;53.254;6.460;2023-04-28T14:37:30;22.70;;;16.35;;
51636;SDS011;37713;53.254;6.460;2023-04-28T14:39:58;23.38;;;17.63;;
51636;SDS011;37713;53.254;6.460;2023-04-28T14:42:29;23.42;;;16.92;;
51636;SDS011;37713;53.254;6.460;2023-04-28T14:44:57;24.48;;;17.23;;
51636;SDS011;37713;53.254;6.460;2023-04-28T14:47:23;24.05;;;17.17;;
51636;SDS011;37713;53.254;6.460;2023-04-28T14:49:50;23.92;;;17.73;;
51636;SDS011;37713;53.254;6.460;2023-04-28T14:52:21;24.35;;;16.65;;
51636;SDS011;37713;53.254;6.460;2023-04-28T14:54:47;24.35;;;17.95;;
51636;SDS011;37713;53.254;6.460;2023-04-28T14:57:13;26.08;;;16.92;;
51636;SDS011;37713;53.254;6.460;2023-04-28T14:59:39;24.52;;;17.45;;
51636;SDS011;37713;53.254;6.460;2023-04-28T15:02:06;21.80;;;16.67;;